Overview Statistics Trail Chart Weather Telemetry Raw packets
 

This is the latest recevied weather packets stored in our database for station/object KG5VSR. If no packets are shown the sender has not sent any weather packets the latest 10 day(s).

<< 5 6 7 8 9 10 11 >>
Time Temp. Humidity Pressure Rain* Wind** Luminosity Snow
1788370903 35° C 56% 1015.6 hPa 0 mm - 704 W/m² -
1788369101 33.89° C 59% 1016.3 hPa 0 mm - 799 W/m² -
1788367298 33.33° C 62% 1016.7 hPa 0 mm - 831 W/m² -
1788365495 32.78° C 62% 1016.9 hPa 0 mm - 818 W/m² -
1788363691 32.78° C 64% 1016.6 hPa 0 mm - 632 W/m² -
1788361890 31.11° C 69% 1016.6 hPa 0 mm - 514 W/m² -
1788360090 30° C 72% 1016.7 hPa 0 mm - 134 W/m² -
1788358289 29.44° C 74% 1016.5 hPa 0 mm - 205 W/m² -
1788356487 28.89° C 76% 1016 hPa 0 mm - 171 W/m² -
1788354687 28.33° C 75% 1016.3 hPa 0 mm - 65 W/m² -
1788352882 27.22° C 79% 1016.1 hPa 0 mm - 31 W/m² -
1788351081 25° C 85% 1016.1 hPa 0 mm - 5 W/m² -
1788349277 25° C 85% 1016.1 hPa 0 mm - 0 W/m² -
1788347474 25.56° C 85% 1016 hPa 0 mm - 0 W/m² -
1788345674 25.56° C 84% 1015.9 hPa 0 mm - 0 W/m² -
1788343874 26.11° C 81% 1015.9 hPa 0 mm - 0 W/m² -
1788342072 26.11° C 80% 1015.8 hPa 0 mm - 0 W/m² -
1788340270 26.67° C 78% 1015.9 hPa 0 mm - 0 W/m² -
1788338470 27.78° C 75% 1015.6 hPa 0 mm - 0 W/m² -
1788336670 27.78° C 74% 1015.6 hPa 0 mm - 0 W/m² -
1788334865 28.89° C 71% 1015.9 hPa 0 mm - 0 W/m² -
1788333062 28.89° C 70% 1015.6 hPa 0 mm - 0 W/m² -
1788331261 29.44° C 69% 1015.6 hPa 0 mm - 0 W/m² -
1788329458 29.44° C 69% 1015.9 hPa 0 mm - 0 W/m² -
1788327655 30° C 70% 1015.6 hPa 0 mm - 0 W/m² -

* Rain latest hour (hover to see other rain measurements)
** Current wind speed in m/s (hover to see current wind gust speed)